createdAt,value
2023-02-23T00:00:23.068Z,47.60
2023-02-23T00:02:51.085Z,51.23
2023-02-23T00:05:19.969Z,47.77
2023-02-23T00:07:47.358Z,54.90
2023-02-23T00:10:15.736Z,49.50
2023-02-23T00:12:43.567Z,50.90
2023-02-23T00:15:11.531Z,51.23
2023-02-23T00:17:40.971Z,46.43
2023-02-23T00:20:11.475Z,46.67
2023-02-23T00:22:41.270Z,49.90
2023-02-23T00:25:10.081Z,46.20
2023-02-23T00:27:38.744Z,49.87
2023-02-23T00:30:08.220Z,48.17
2023-02-23T00:32:35.973Z,54.30
2023-02-23T00:35:03.488Z,53.43
2023-02-23T00:37:30.961Z,51.87
2023-02-23T00:39:59.723Z,52.40
2023-02-23T00:42:29.598Z,52.43
2023-02-23T00:44:57.226Z,50.50
2023-02-23T00:47:25.358Z,55.80
2023-02-23T00:49:52.775Z,55.83
2023-02-23T00:52:20.318Z,55.20
2023-02-23T00:54:47.734Z,54.20
2023-02-23T00:57:16.481Z,52.43
2023-02-23T00:59:43.975Z,54.97
2023-02-23T01:02:11.436Z,55.60
2023-02-23T01:04:38.851Z,54.10
2023-02-23T01:07:06.614Z,56.33
2023-02-23T01:09:34.327Z,57.33
2023-02-23T01:12:01.944Z,52.40
2023-02-23T01:14:31.101Z,53.50
2023-02-23T01:16:58.952Z,55.07
2023-02-23T01:19:26.424Z,51.93
2023-02-23T01:21:53.817Z,52.00
2023-02-23T01:24:21.299Z,53.23
2023-02-23T01:26:48.759Z,51.30
2023-02-23T01:29:17.191Z,52.10
2023-02-23T01:31:47.645Z,48.03
2023-02-23T01:34:15.564Z,50.70
2023-02-23T01:36:44.132Z,49.40
2023-02-23T01:39:15.680Z,49.47
2023-02-23T01:41:43.331Z,55.67
2023-02-23T01:44:25.742Z,52.77
2023-02-23T01:46:54.531Z,55.80
2023-02-23T01:49:25.446Z,54.00
2023-02-23T01:51:55.630Z,52.90
2023-02-23T01:54:25.606Z,50.50
2023-02-23T01:56:58.335Z,53.50
2023-02-23T01:59:28.647Z,57.27
2023-02-23T02:01:57.510Z,62.53
2023-02-23T02:04:26.036Z,63.00
2023-02-23T02:06:56.229Z,56.83
2023-02-23T02:09:25.696Z,63.47
2023-02-23T02:11:54.232Z,58.23
2023-02-23T02:14:23.362Z,57.33
2023-02-23T02:17:08.524Z,50.10
2023-02-23T02:20:12.592Z,55.20
2023-02-23T02:22:54.091Z,52.10
2023-02-23T02:25:36.063Z,56.83
2023-02-23T02:28:26.342Z,56.00
2023-02-23T02:31:16.635Z,54.87
2023-02-23T02:34:02.258Z,59.27
2023-02-23T02:36:48.343Z,56.07
2023-02-23T02:39:23.948Z,58.67
2023-02-23T02:41:54.376Z,55.80
2023-02-23T02:44:27.129Z,57.77
2023-02-23T02:46:57.401Z,57.50
2023-02-23T02:49:27.608Z,53.90
2023-02-23T02:51:59.439Z,58.00
2023-02-23T02:54:31.132Z,56.63
2023-02-23T02:57:00.427Z,53.87
2023-02-23T02:59:45.763Z,59.70
2023-02-23T03:02:34.151Z,54.30
2023-02-23T03:05:19.041Z,53.70
2023-02-23T03:08:06.971Z,56.83
2023-02-23T03:10:55.244Z,59.57
2023-02-23T03:13:49.713Z,59.80
2023-02-23T03:16:38.082Z,61.73
2023-02-23T03:19:28.548Z,62.93
2023-02-23T03:22:15.517Z,61.53
2023-02-23T03:25:02.772Z,55.97
2023-02-23T03:27:55.440Z,61.47
2023-02-23T03:30:42.805Z,64.20
2023-02-23T03:33:30.348Z,61.30
2023-02-23T03:36:18.857Z,70.17
2023-02-23T03:39:05.654Z,65.33
2023-02-23T03:41:52.550Z,65.80
2023-02-23T03:44:42.216Z,68.77
2023-02-23T03:47:28.124Z,68.40
2023-02-23T03:50:13.716Z,65.80
2023-02-23T03:53:00.754Z,67.97
2023-02-23T03:55:48.624Z,65.50
2023-02-23T03:58:35.405Z,68.63
2023-02-23T04:01:22.489Z,65.33
2023-02-23T04:04:09.536Z,67.60
2023-02-23T04:06:56.244Z,75.10
2023-02-23T04:09:41.039Z,64.73
2023-02-23T04:12:28.925Z,67.23
2023-02-23T04:14:57.420Z,68.33
2023-02-23T04:17:32.718Z,71.60
2023-02-23T04:20:00.260Z,69.30
2023-02-23T04:22:27.673Z,68.47
2023-02-23T04:24:55.044Z,70.20
2023-02-23T04:27:22.620Z,70.57
2023-02-23T04:29:50.205Z,73.37
2023-02-23T04:32:18.950Z,71.70
2023-02-23T04:34:47.957Z,85.17
2023-02-23T04:37:15.879Z,72.60
2023-02-23T04:39:48.456Z,65.67
2023-02-23T04:42:16.017Z,69.27
2023-02-23T04:44:43.450Z,67.50
2023-02-23T04:47:10.884Z,69.13
2023-02-23T04:49:38.993Z,68.33
2023-02-23T04:52:07.804Z,72.93
2023-02-23T04:54:38.185Z,74.07
2023-02-23T04:57:05.788Z,74.83
2023-02-23T04:59:33.396Z,72.00
2023-02-23T05:02:00.840Z,79.00
2023-02-23T05:04:28.283Z,78.70
2023-02-23T05:06:55.755Z,83.67
2023-02-23T05:09:24.612Z,79.17
2023-02-23T05:11:52.088Z,84.47
2023-02-23T05:14:19.480Z,84.03
2023-02-23T05:16:46.930Z,73.03
2023-02-23T05:19:14.313Z,73.83
2023-02-23T05:21:41.815Z,81.17
2023-02-23T05:24:09.827Z,77.30
2023-02-23T05:26:38.595Z,82.80
2023-02-23T05:29:06.574Z,83.30
2023-02-23T05:31:34.120Z,82.90
2023-02-23T05:34:01.625Z,78.80
2023-02-23T05:36:29.116Z,83.40
2023-02-23T05:38:56.566Z,87.10
2023-02-23T05:41:24.167Z,77.60
2023-02-23T05:43:53.715Z,77.50
2023-02-23T05:46:22.531Z,78.17
2023-02-23T05:48:50.008Z,79.90
2023-02-23T05:51:18.491Z,75.37
2023-02-23T05:53:46.798Z,84.23
2023-02-23T05:56:18.267Z,79.37
2023-02-23T05:58:45.679Z,72.50
2023-02-23T06:01:14.559Z,76.73
2023-02-23T06:03:42.165Z,72.23
2023-02-23T06:06:09.602Z,71.33
2023-02-23T06:08:37.049Z,72.53
2023-02-23T06:11:04.883Z,74.27
2023-02-23T06:13:32.429Z,79.67
2023-02-23T06:16:00.287Z,72.60
2023-02-23T06:18:29.519Z,70.73
2023-02-23T06:20:59.876Z,78.23
2023-02-23T06:23:27.288Z,73.07
2023-02-23T06:25:54.789Z,74.03
2023-02-23T06:28:22.193Z,74.83
2023-02-23T06:30:52.296Z,71.90
2023-02-23T06:33:19.799Z,75.10
2023-02-23T06:35:48.573Z,80.23
2023-02-23T06:38:16.015Z,78.37
2023-02-23T06:40:44.070Z,74.17
2023-02-23T06:43:11.534Z,85.27
2023-02-23T06:45:39.218Z,81.53
2023-02-23T06:48:06.937Z,78.70
2023-02-23T06:50:34.677Z,86.47
2023-02-23T06:53:03.450Z,78.43
2023-02-23T06:55:30.873Z,87.67
2023-02-23T06:57:58.362Z,87.00
2023-02-23T07:00:25.792Z,85.13
2023-02-23T07:02:53.229Z,73.30
2023-02-23T07:05:20.986Z,80.97
2023-02-23T07:07:48.407Z,86.73
2023-02-23T07:10:17.385Z,79.00
2023-02-23T07:12:45.049Z,81.77
2023-02-23T07:15:12.746Z,81.17
2023-02-23T07:17:40.210Z,84.33
2023-02-23T07:20:08.002Z,89.30
2023-02-23T07:22:35.953Z,76.90
2023-02-23T07:25:04.464Z,77.03
2023-02-23T07:27:33.255Z,81.90
2023-02-23T07:30:00.695Z,78.80
2023-02-23T07:32:28.199Z,79.43
2023-02-23T07:34:55.721Z,73.03
2023-02-23T07:37:23.213Z,77.00
2023-02-23T07:39:50.634Z,75.53
2023-02-23T07:42:18.046Z,80.10
2023-02-23T07:44:46.925Z,74.57
2023-02-23T07:47:14.452Z,76.40
2023-02-23T07:49:42.315Z,82.50
2023-02-23T07:52:09.712Z,79.93
2023-02-23T07:54:37.155Z,79.00
2023-02-23T07:57:04.580Z,78.40
2023-02-23T07:59:32.618Z,85.43
2023-02-23T08:02:01.370Z,83.10
2023-02-23T08:04:28.827Z,79.93
2023-02-23T08:06:56.358Z,89.20
2023-02-23T08:09:23.714Z,82.67
2023-02-23T08:11:51.179Z,80.07
2023-02-23T08:14:21.908Z,85.00
2023-02-23T08:16:51.493Z,82.27
2023-02-23T08:19:22.712Z,81.80
2023-02-23T08:21:50.118Z,81.90
2023-02-23T08:24:17.617Z,86.57
2023-02-23T08:26:44.997Z,73.93
2023-02-23T08:29:12.461Z,82.40
2023-02-23T08:31:40.284Z,79.77
2023-02-23T08:34:07.827Z,75.67
2023-02-23T08:36:36.677Z,90.87
2023-02-23T08:39:06.476Z,91.17
2023-02-23T08:41:34.068Z,85.17
2023-02-23T08:44:01.532Z,80.70
2023-02-23T08:46:28.997Z,87.07
2023-02-23T08:48:56.630Z,81.03
2023-02-23T08:51:24.080Z,89.77
2023-02-23T08:53:52.893Z,73.90
2023-02-23T08:56:20.346Z,81.10
2023-02-23T08:58:47.745Z,80.40
2023-02-23T09:01:19.160Z,80.17
2023-02-23T09:03:47.036Z,72.43
2023-02-23T09:06:16.073Z,68.67
2023-02-23T09:08:43.557Z,72.27
2023-02-23T09:11:12.286Z,73.40
2023-02-23T09:13:39.692Z,58.83
2023-02-23T09:16:08.089Z,60.20
2023-02-23T09:18:36.025Z,63.80
2023-02-23T09:21:06.475Z,65.67
2023-02-23T09:23:34.010Z,54.30
2023-02-23T09:26:03.760Z,49.90
2023-02-23T09:28:33.928Z,49.90
2023-02-23T09:31:06.450Z,47.70
2023-02-23T09:33:33.890Z,49.83
2023-02-23T09:36:01.343Z,47.13
2023-02-23T09:38:30.342Z,50.50
2023-02-23T09:40:57.760Z,52.67
2023-02-23T09:43:29.100Z,51.03
2023-02-23T09:45:59.668Z,53.30
2023-02-23T09:48:28.536Z,52.63
2023-02-23T09:50:56.641Z,44.07
2023-02-23T09:53:36.967Z,51.77
2023-02-23T09:56:06.522Z,50.50
2023-02-23T09:58:35.033Z,51.40
2023-02-23T10:01:20.478Z,50.90
2023-02-23T10:03:51.339Z,49.57
2023-02-23T10:06:19.214Z,44.97
2023-02-23T10:08:49.700Z,48.33
2023-02-23T10:11:23.276Z,50.00
2023-02-23T10:13:55.430Z,45.53
2023-02-23T10:16:31.344Z,45.87
2023-02-23T10:19:01.862Z,47.80
2023-02-23T10:21:32.187Z,47.97
2023-02-23T10:24:01.289Z,42.90
2023-02-23T10:26:32.117Z,45.90
2023-02-23T10:29:00.213Z,50.53
2023-02-23T10:31:32.928Z,46.10
2023-02-23T10:34:03.886Z,49.80
2023-02-23T10:36:36.585Z,47.73
2023-02-23T10:39:06.219Z,44.37
2023-02-23T10:41:35.303Z,47.43
2023-02-23T10:44:15.686Z,48.10
2023-02-23T10:46:47.424Z,46.40
2023-02-23T10:49:18.945Z,47.17
2023-02-23T10:51:46.452Z,43.70
2023-02-23T10:54:32.509Z,45.30
2023-02-23T10:57:00.179Z,43.97
2023-02-23T10:59:28.767Z,42.03
2023-02-23T11:02:02.275Z,43.63
2023-02-23T11:04:30.733Z,40.83
2023-02-23T11:07:07.980Z,42.67
2023-02-23T11:09:46.526Z,45.13
2023-02-23T11:12:21.601Z,40.20
2023-02-23T11:14:49.074Z,41.07
2023-02-23T11:17:27.626Z,42.40
2023-02-23T11:19:59.086Z,45.27
2023-02-23T11:22:27.116Z,43.70
2023-02-23T11:24:55.513Z,44.23
2023-02-23T11:27:24.995Z,41.37
2023-02-23T11:29:54.001Z,42.40
2023-02-23T11:32:22.687Z,40.47
2023-02-23T11:35:11.515Z,45.37
2023-02-23T11:37:38.963Z,44.63
2023-02-23T11:40:20.661Z,46.50
2023-02-23T11:42:53.456Z,41.50
2023-02-23T11:45:21.528Z,40.33
2023-02-23T11:47:50.101Z,46.00
2023-02-23T11:50:29.408Z,41.90
2023-02-23T11:52:58.849Z,40.43
2023-02-23T11:55:26.917Z,41.17
2023-02-23T11:57:56.765Z,43.47
2023-02-23T12:00:26.120Z,40.50
2023-02-23T12:02:55.721Z,40.93
2023-02-23T12:05:24.976Z,42.93
2023-02-23T12:07:55.488Z,41.23
2023-02-23T12:10:25.352Z,40.17
2023-02-23T12:12:57.058Z,42.67
2023-02-23T12:15:31.492Z,45.90
2023-02-23T12:18:00.986Z,47.87
2023-02-23T12:20:31.498Z,41.40
2023-02-23T12:23:03.570Z,43.63
2023-02-23T12:25:35.031Z,45.33
2023-02-23T12:28:18.303Z,42.40
2023-02-23T12:30:49.270Z,38.47
2023-02-23T12:33:19.678Z,41.70
2023-02-23T12:35:50.718Z,43.30
2023-02-23T12:38:27.745Z,35.43
2023-02-23T12:40:59.138Z,38.97
2023-02-23T12:43:30.307Z,38.50
2023-02-23T12:46:03.944Z,41.33
2023-02-23T12:48:34.251Z,36.73
2023-02-23T12:51:02.195Z,38.47
2023-02-23T12:53:32.819Z,39.10
2023-02-23T12:56:05.724Z,47.50
2023-02-23T12:58:38.635Z,46.37
2023-02-23T13:01:07.428Z,57.57
2023-02-23T13:03:56.198Z,50.10
2023-02-23T13:06:30.398Z,50.23
2023-02-23T13:09:05.949Z,53.67
2023-02-23T13:11:48.313Z,48.63
2023-02-23T13:14:19.020Z,48.13
2023-02-23T13:16:49.360Z,53.90
2023-02-23T13:19:21.300Z,55.30
2023-02-23T13:21:53.827Z,56.83
2023-02-23T13:24:23.801Z,55.20
2023-02-23T13:26:54.663Z,58.90
2023-02-23T13:29:27.800Z,55.20
2023-02-23T13:31:55.458Z,60.13
2023-02-23T13:34:26.560Z,55.73
2023-02-23T13:36:54.211Z,58.57
2023-02-23T13:39:33.418Z,58.57
2023-02-23T13:42:09.706Z,60.73
2023-02-23T13:44:38.517Z,57.13
2023-02-23T13:47:09.459Z,58.90
2023-02-23T13:49:39.102Z,58.10
2023-02-23T13:52:13.045Z,60.87
2023-02-23T13:54:52.225Z,57.87
2023-02-23T13:57:22.755Z,55.37
2023-02-23T13:59:50.776Z,57.30
2023-02-23T14:02:33.225Z,60.20
2023-02-23T14:05:03.565Z,62.90
2023-02-23T14:07:32.222Z,53.30
2023-02-23T14:10:04.941Z,53.00
2023-02-23T14:12:34.199Z,56.30
2023-02-23T14:15:16.487Z,49.67
2023-02-23T14:17:44.267Z,47.87
2023-02-23T14:20:29.326Z,42.33
2023-02-23T14:23:06.643Z,50.87
2023-02-23T14:25:46.698Z,42.53
2023-02-23T14:28:25.098Z,43.33
2023-02-23T14:31:00.327Z,42.80
2023-02-23T14:33:39.436Z,48.23
2023-02-23T14:36:21.799Z,41.47
2023-02-23T14:38:52.028Z,40.63
2023-02-23T14:41:23.681Z,45.13
2023-02-23T14:43:54.299Z,46.30
2023-02-23T14:46:22.854Z,40.30
2023-02-23T14:48:59.044Z,40.83
2023-02-23T14:51:29.518Z,45.10
2023-02-23T14:53:59.309Z,39.60
2023-02-23T14:56:42.260Z,41.30
2023-02-23T14:59:18.830Z,37.03
2023-02-23T15:01:46.281Z,41.23
2023-02-23T15:04:14.522Z,36.10
2023-02-23T15:06:42.580Z,41.37
2023-02-23T15:09:16.706Z,34.87
2023-02-23T15:11:48.609Z,40.77
2023-02-23T15:14:26.829Z,36.20
2023-02-23T15:16:56.653Z,40.13
2023-02-23T15:19:26.733Z,39.07
2023-02-23T15:21:55.229Z,37.40
2023-02-23T15:24:24.534Z,34.63
2023-02-23T15:26:53.496Z,41.13
2023-02-23T15:29:22.281Z,36.70
2023-02-23T15:31:53.355Z,41.27
2023-02-23T15:34:21.675Z,41.03
2023-02-23T15:36:51.991Z,41.30
2023-02-23T15:39:22.206Z,39.43
2023-02-23T15:41:50.462Z,45.77
2023-02-23T15:44:22.784Z,39.40
2023-02-23T15:46:52.302Z,48.20
2023-02-23T15:49:21.984Z,41.87
2023-02-23T15:51:51.062Z,38.60
2023-02-23T15:54:20.463Z,40.57
2023-02-23T15:56:49.792Z,42.73
2023-02-23T15:59:23.729Z,44.70
2023-02-23T16:01:53.896Z,42.53
2023-02-23T16:04:22.137Z,41.20
2023-02-23T16:06:54.092Z,35.10
2023-02-23T16:09:28.604Z,38.60
2023-02-23T16:11:57.143Z,36.47
2023-02-23T16:14:25.468Z,38.87
2023-02-23T16:17:10.018Z,37.27
2023-02-23T16:19:41.205Z,41.33
2023-02-23T16:22:15.532Z,37.13
2023-02-23T16:24:43.034Z,39.53
2023-02-23T16:27:12.164Z,32.27
2023-02-23T16:29:42.460Z,36.93
2023-02-23T16:32:18.046Z,35.57
2023-02-23T16:34:48.602Z,33.37
2023-02-23T16:37:17.892Z,34.30
2023-02-23T16:39:45.680Z,34.07
2023-02-23T16:42:18.662Z,35.67
2023-02-23T16:44:47.105Z,30.97
2023-02-23T16:47:33.286Z,36.30
2023-02-23T16:50:13.666Z,37.73
2023-02-23T16:52:47.089Z,36.90
2023-02-23T16:55:18.128Z,37.77
2023-02-23T16:57:46.439Z,35.73
2023-02-23T17:00:18.618Z,39.47
2023-02-23T17:02:46.274Z,39.70
2023-02-23T17:05:15.799Z,42.27
2023-02-23T17:07:43.752Z,42.10
2023-02-23T17:10:21.172Z,41.77
2023-02-23T17:12:48.711Z,39.50
2023-02-23T17:15:18.267Z,39.70
2023-02-23T17:17:45.704Z,38.17
2023-02-23T17:20:17.454Z,35.50
2023-02-23T17:22:46.193Z,41.17
2023-02-23T17:25:13.618Z,33.50
2023-02-23T17:27:40.966Z,38.60
2023-02-23T17:30:09.435Z,38.17
2023-02-23T17:32:37.663Z,41.87
2023-02-23T17:35:05.539Z,42.07
2023-02-23T17:37:33.053Z,40.70
2023-02-23T17:40:01.860Z,45.40
2023-02-23T17:42:34.876Z,39.23
2023-02-23T17:45:02.792Z,41.50
2023-02-23T17:47:30.709Z,42.43
2023-02-23T17:49:58.251Z,42.60
2023-02-23T17:52:25.906Z,45.27
2023-02-23T17:54:54.400Z,40.40
2023-02-23T17:57:23.526Z,43.40
2023-02-23T17:59:51.082Z,40.63
2023-02-23T18:02:20.570Z,47.03
2023-02-23T18:04:48.040Z,39.40
2023-02-23T18:07:15.674Z,42.30
2023-02-23T18:09:43.340Z,43.03
2023-02-23T18:12:10.889Z,43.50
2023-02-23T18:14:39.736Z,45.53
2023-02-23T18:17:07.286Z,46.57
2023-02-23T18:19:34.704Z,40.33
2023-02-23T18:22:02.093Z,44.87
2023-02-23T18:24:31.675Z,43.17
2023-02-23T18:27:01.956Z,42.47
2023-02-23T18:29:29.776Z,42.40
2023-02-23T18:31:59.527Z,49.30
2023-02-23T18:34:28.631Z,54.37
2023-02-23T18:36:56.353Z,48.73
2023-02-23T18:39:23.811Z,46.90
2023-02-23T18:41:51.360Z,44.97
2023-02-23T18:44:18.975Z,53.83
2023-02-23T18:46:47.067Z,53.20
2023-02-23T18:49:16.293Z,54.50
2023-02-23T18:51:43.697Z,54.17
2023-02-23T18:54:16.715Z,49.50
2023-02-23T18:56:45.004Z,55.30
2023-02-23T18:59:12.443Z,45.10
2023-02-23T19:01:39.883Z,46.00
2023-02-23T19:04:08.060Z,51.70
2023-02-23T19:06:37.451Z,44.47
2023-02-23T19:09:09.464Z,47.33
2023-02-23T19:11:37.652Z,51.00
2023-02-23T19:14:07.820Z,55.60
2023-02-23T19:16:35.817Z,49.17
2023-02-23T19:19:04.360Z,52.10
2023-02-23T19:21:32.585Z,50.17
2023-02-23T19:24:02.716Z,53.90
2023-02-23T19:26:30.855Z,49.93
2023-02-23T19:28:58.816Z,55.73
2023-02-23T19:31:27.188Z,57.67
2023-02-23T19:33:55.920Z,48.43
2023-02-23T19:36:26.012Z,55.33
2023-02-23T19:38:53.626Z,48.00
2023-02-23T19:41:22.887Z,60.80
2023-02-23T19:43:50.541Z,52.30
2023-02-23T19:46:18.096Z,58.27
2023-02-23T19:48:45.731Z,53.30
2023-02-23T19:51:13.783Z,61.80
2023-02-23T19:53:41.451Z,49.80
2023-02-23T19:56:09.819Z,51.33
2023-02-23T19:58:38.721Z,53.10
2023-02-23T20:01:07.015Z,48.03
2023-02-23T20:03:34.790Z,55.90
2023-02-23T20:06:05.309Z,46.00
2023-02-23T20:08:32.790Z,42.87
2023-02-23T20:11:00.759Z,48.30
2023-02-23T20:13:28.278Z,57.33
2023-02-23T20:16:02.504Z,48.40
2023-02-23T20:18:29.962Z,45.63
2023-02-23T20:20:57.417Z,42.10
2023-02-23T20:23:24.864Z,45.73
2023-02-23T20:25:52.317Z,45.30
2023-02-23T20:28:19.785Z,41.47
2023-02-23T20:30:48.081Z,39.27
2023-02-23T20:33:16.967Z,45.30
2023-02-23T20:35:44.428Z,42.17
2023-02-23T20:38:14.060Z,34.37
2023-02-23T20:40:41.482Z,36.97
2023-02-23T20:43:08.916Z,36.00
2023-02-23T20:45:36.345Z,34.70
2023-02-23T20:48:04.919Z,35.97
2023-02-23T20:50:34.231Z,33.83
2023-02-23T20:53:02.405Z,33.70
2023-02-23T20:55:30.417Z,31.90
2023-02-23T20:57:58.065Z,37.43
2023-02-23T21:00:32.312Z,37.63
2023-02-23T21:03:00.272Z,39.63
2023-02-23T21:05:28.880Z,39.97
2023-02-23T21:08:01.314Z,38.70
2023-02-23T21:10:32.084Z,38.43
2023-02-23T21:12:59.555Z,36.00
2023-02-23T21:15:27.353Z,38.80
2023-02-23T21:17:55.156Z,38.33
2023-02-23T21:20:23.061Z,40.23
2023-02-23T21:22:51.025Z,37.53
2023-02-23T21:25:20.595Z,38.50
2023-02-23T21:27:48.189Z,34.20
2023-02-23T21:30:19.303Z,38.67
2023-02-23T21:32:47.015Z,36.13
2023-02-23T21:35:14.629Z,38.20
2023-02-23T21:37:42.339Z,38.53
2023-02-23T21:40:11.833Z,38.67
2023-02-23T21:42:41.421Z,41.47
2023-02-23T21:45:09.444Z,38.13
2023-02-23T21:47:37.405Z,39.87
2023-02-23T21:50:05.359Z,35.67
2023-02-23T21:52:33.442Z,44.10
2023-02-23T21:55:03.904Z,38.17
2023-02-23T21:57:33.306Z,42.07
2023-02-23T22:00:02.055Z,39.80
2023-02-23T22:02:30.574Z,36.93
2023-02-23T22:04:58.201Z,30.67
2023-02-23T22:07:29.175Z,38.80
2023-02-23T22:09:56.699Z,31.53
2023-02-23T22:12:24.164Z,31.90
2023-02-23T22:14:51.647Z,32.57
2023-02-23T22:17:20.485Z,35.13
2023-02-23T22:19:50.643Z,36.13
2023-02-23T22:22:20.021Z,34.23
2023-02-23T22:24:48.799Z,30.90
2023-02-23T22:27:16.898Z,33.80
2023-02-23T22:29:44.424Z,40.03
2023-02-23T22:32:12.077Z,31.83
2023-02-23T22:34:41.113Z,33.73
2023-02-23T22:37:08.487Z,30.83
2023-02-23T22:39:35.997Z,32.93
2023-02-23T22:42:09.268Z,31.30
2023-02-23T22:44:38.964Z,37.57
2023-02-23T22:47:06.455Z,31.63
2023-02-23T22:49:34.616Z,38.60
2023-02-23T22:52:03.455Z,40.43
2023-02-23T22:54:31.465Z,39.00
2023-02-23T22:56:59.137Z,38.13
2023-02-23T22:59:28.621Z,38.90
2023-02-23T23:01:56.413Z,37.30
2023-02-23T23:04:23.885Z,37.03
2023-02-23T23:06:51.543Z,39.17
2023-02-23T23:09:21.086Z,36.00
2023-02-23T23:11:50.724Z,35.93
2023-02-23T23:14:19.404Z,47.60
2023-02-23T23:16:49.646Z,38.53
2023-02-23T23:19:18.660Z,35.60
2023-02-23T23:21:46.597Z,32.70
2023-02-23T23:24:15.128Z,31.27
2023-02-23T23:26:44.163Z,31.60
2023-02-23T23:29:12.941Z,30.90
2023-02-23T23:31:45.353Z,31.00
2023-02-23T23:34:13.964Z,32.93
2023-02-23T23:36:43.219Z,30.13
2023-02-23T23:39:12.991Z,33.03
2023-02-23T23:41:42.885Z,32.87
2023-02-23T23:44:13.042Z,39.17
2023-02-23T23:46:42.730Z,34.17
2023-02-23T23:49:11.714Z,31.07
2023-02-23T23:51:44.678Z,30.90
2023-02-23T23:54:13.422Z,31.90
2023-02-23T23:56:40.870Z,29.57
2023-02-23T23:59:11.051Z,33.23
